Terminal Aerodrome Forecast
Issued by NWS Twin Cities, MN

Home | Current Version | Previous Version | Graphics & Text | Print | Product List | Glossary On
Versions: 1 2 3 4 5 6 7 8 9 10 11 12 13 14 15
000
FTUS43 KMPX 090534
TAFEAU
TAF
KEAU 090534Z 0906/1006 32010G16KT 6SM -SN OVC025
     FM091200 32013G21KT P6SM BKN030
     FM091700 33013G20KT P6SM FEW030 SCT250
     FM100100 32009KT P6SM SKC=

USA.gov is the U.S. government's official web portal to all federal, state and local government web resources and services.